sensor_id;sensor_type;location;lat;lon;timestamp;pressure;altitude;pressure_sealevel;temperature;humidity
53300;BME280;39187;48.476;8.310;2023-11-19T00:02:08;91221.59;;;6.12;100.00
53300;BME280;39187;48.476;8.310;2023-11-19T00:04:37;91245.69;;;6.21;100.00
53300;BME280;39187;48.476;8.310;2023-11-19T00:07:06;91239.31;;;6.19;100.00
53300;BME280;39187;48.476;8.310;2023-11-19T00:09:33;91230.97;;;6.24;100.00
53300;BME280;39187;48.476;8.310;2023-11-19T00:12:02;91238.53;;;6.22;100.00
53300;BME280;39187;48.476;8.310;2023-11-19T00:14:28;91239.00;;;5.99;100.00
53300;BME280;39187;48.476;8.310;2023-11-19T00:16:55;91239.69;;;6.21;100.00
53300;BME280;39187;48.476;8.310;2023-11-19T00:19:20;91226.50;;;6.10;100.00
53300;BME280;39187;48.476;8.310;2023-11-19T00:21:46;91211.00;;;6.19;100.00
53300;BME280;39187;48.476;8.310;2023-11-19T00:24:12;91214.03;;;6.18;100.00
53300;BME280;39187;48.476;8.310;2023-11-19T00:26:38;91217.38;;;6.25;100.00
53300;BME280;39187;48.476;8.310;2023-11-19T00:29:04;91211.34;;;6.21;100.00
53300;BME280;39187;48.476;8.310;2023-11-19T00:31:31;91206.44;;;6.23;100.00
53300;BME280;39187;48.476;8.310;2023-11-19T00:33:57;91206.81;;;6.22;100.00
53300;BME280;39187;48.476;8.310;2023-11-19T00:36:22;91209.75;;;6.34;100.00
53300;BME280;39187;48.476;8.310;2023-11-19T00:38:49;91215.75;;;6.46;100.00
53300;BME280;39187;48.476;8.310;2023-11-19T00:41:15;91208.25;;;6.37;100.00
53300;BME280;39187;48.476;8.310;2023-11-19T00:43:42;91208.22;;;6.40;100.00
53300;BME280;39187;48.476;8.310;2023-11-19T00:46:08;91195.06;;;6.30;100.00
53300;BME280;39187;48.476;8.310;2023-11-19T00:48:33;91205.19;;;6.42;100.00
53300;BME280;39187;48.476;8.310;2023-11-19T00:50:59;91206.63;;;6.54;100.00
53300;BME280;39187;48.476;8.310;2023-11-19T00:53:25;91204.06;;;6.43;100.00
53300;BME280;39187;48.476;8.310;2023-11-19T00:55:50;91206.28;;;6.52;100.00
53300;BME280;39187;48.476;8.310;2023-11-19T00:58:17;91196.81;;;6.58;100.00
53300;BME280;39187;48.476;8.310;2023-11-19T01:00:43;91198.78;;;6.43;100.00
53300;BME280;39187;48.476;8.310;2023-11-19T01:03:10;91194.97;;;6.48;100.00
53300;BME280;39187;48.476;8.310;2023-11-19T01:05:36;91196.44;;;6.56;100.00
53300;BME280;39187;48.476;8.310;2023-11-19T01:08:02;91192.25;;;6.58;100.00
53300;BME280;39187;48.476;8.310;2023-11-19T01:10:30;91198.00;;;6.46;100.00
53300;BME280;39187;48.476;8.310;2023-11-19T01:12:55;91187.31;;;6.64;100.00
53300;BME280;39187;48.476;8.310;2023-11-19T01:15:21;91190.38;;;6.59;100.00
53300;BME280;39187;48.476;8.310;2023-11-19T01:17:48;91179.88;;;6.44;100.00
53300;BME280;39187;48.476;8.310;2023-11-19T01:20:14;91178.28;;;6.54;100.00
53300;BME280;39187;48.476;8.310;2023-11-19T01:22:40;91174.56;;;6.48;100.00
53300;BME280;39187;48.476;8.310;2023-11-19T01:25:06;91180.13;;;6.64;100.00
53300;BME280;39187;48.476;8.310;2023-11-19T01:27:32;91172.25;;;6.54;100.00
53300;BME280;39187;48.476;8.310;2023-11-19T01:30:02;91183.16;;;6.63;100.00
53300;BME280;39187;48.476;8.310;2023-11-19T01:32:35;91172.53;;;6.66;100.00
53300;BME280;39187;48.476;8.310;2023-11-19T01:35:03;91178.25;;;6.65;100.00
53300;BME280;39187;48.476;8.310;2023-11-19T01:37:29;91179.38;;;6.64;100.00
53300;BME280;39187;48.476;8.310;2023-11-19T01:39:55;91200.06;;;6.72;100.00
53300;BME280;39187;48.476;8.310;2023-11-19T01:42:20;91194.56;;;6.53;100.00
53300;BME280;39187;48.476;8.310;2023-11-19T01:44:58;91187.69;;;6.62;100.00
53300;BME280;39187;48.476;8.310;2023-11-19T01:47:25;91192.50;;;6.78;100.00
53300;BME280;39187;48.476;8.310;2023-11-19T01:49:51;91186.03;;;6.79;100.00
53300;BME280;39187;48.476;8.310;2023-11-19T01:52:17;91174.84;;;6.61;100.00
53300;BME280;39187;48.476;8.310;2023-11-19T01:54:43;91168.38;;;6.69;100.00
53300;BME280;39187;48.476;8.310;2023-11-19T01:57:09;91163.97;;;6.52;100.00
53300;BME280;39187;48.476;8.310;2023-11-19T01:59:35;91171.72;;;6.76;100.00
53300;BME280;39187;48.476;8.310;2023-11-19T02:02:00;91174.78;;;6.71;100.00
53300;BME280;39187;48.476;8.310;2023-11-19T02:04:26;91183.88;;;6.70;100.00
53300;BME280;39187;48.476;8.310;2023-11-19T02:06:54;91172.88;;;6.75;100.00
53300;BME280;39187;48.476;8.310;2023-11-19T02:09:21;91173.28;;;6.70;100.00
53300;BME280;39187;48.476;8.310;2023-11-19T02:11:47;91171.13;;;6.58;100.00
53300;BME280;39187;48.476;8.310;2023-11-19T02:14:23;91167.16;;;6.80;100.00
53300;BME280;39187;48.476;8.310;2023-11-19T02:16:51;91171.25;;;6.85;100.00
53300;BME280;39187;48.476;8.310;2023-11-19T02:19:19;91173.72;;;6.65;100.00
53300;BME280;39187;48.476;8.310;2023-11-19T02:21:45;91181.19;;;6.74;100.00
53300;BME280;39187;48.476;8.310;2023-11-19T02:24:12;91178.13;;;6.79;100.00
53300;BME280;39187;48.476;8.310;2023-11-19T02:26:44;91187.94;;;6.82;100.00
53300;BME280;39187;48.476;8.310;2023-11-19T02:29:13;91187.94;;;6.82;100.00
53300;BME280;39187;48.476;8.310;2023-11-19T02:31:38;91189.84;;;6.78;100.00
53300;BME280;39187;48.476;8.310;2023-11-19T02:34:04;91180.84;;;6.72;100.00
53300;BME280;39187;48.476;8.310;2023-11-19T02:36:31;91193.66;;;6.73;100.00
53300;BME280;39187;48.476;8.310;2023-11-19T02:38:58;91183.41;;;6.79;100.00
53300;BME280;39187;48.476;8.310;2023-11-19T02:41:23;91173.25;;;6.74;100.00
53300;BME280;39187;48.476;8.310;2023-11-19T02:43:49;91177.78;;;6.73;100.00
53300;BME280;39187;48.476;8.310;2023-11-19T02:46:15;91181.91;;;6.78;100.00
53300;BME280;39187;48.476;8.310;2023-11-19T02:48:43;91184.94;;;6.76;100.00
53300;BME280;39187;48.476;8.310;2023-11-19T02:51:09;91183.44;;;6.75;100.00
53300;BME280;39187;48.476;8.310;2023-11-19T02:53:36;91192.78;;;6.87;100.00
53300;BME280;39187;48.476;8.310;2023-11-19T02:56:03;91178.81;;;6.90;100.00
53300;BME280;39187;48.476;8.310;2023-11-19T02:58:37;91181.47;;;6.87;100.00
53300;BME280;39187;48.476;8.310;2023-11-19T03:01:04;91174.00;;;6.78;100.00
53300;BME280;39187;48.476;8.310;2023-11-19T03:03:38;91182.25;;;6.83;100.00
53300;BME280;39187;48.476;8.310;2023-11-19T03:06:06;91198.19;;;6.76;100.00
53300;BME280;39187;48.476;8.310;2023-11-19T03:08:32;91189.44;;;6.83;100.00
53300;BME280;39187;48.476;8.310;2023-11-19T03:10:58;91182.25;;;6.80;100.00
53300;BME280;39187;48.476;8.310;2023-11-19T03:13:24;91172.19;;;6.64;100.00
53300;BME280;39187;48.476;8.310;2023-11-19T03:15:50;91192.09;;;6.79;100.00
53300;BME280;39187;48.476;8.310;2023-11-19T03:18:16;91179.19;;;6.85;100.00
53300;BME280;39187;48.476;8.310;2023-11-19T03:20:42;91176.22;;;6.79;100.00
53300;BME280;39187;48.476;8.310;2023-11-19T03:23:07;91175.88;;;6.77;100.00
53300;BME280;39187;48.476;8.310;2023-11-19T03:25:33;91158.88;;;6.75;100.00
53300;BME280;39187;48.476;8.310;2023-11-19T03:28:00;91163.78;;;6.76;100.00
53300;BME280;39187;48.476;8.310;2023-11-19T03:30:29;91162.22;;;6.82;100.00
53300;BME280;39187;48.476;8.310;2023-11-19T03:32:58;91176.56;;;6.85;100.00
53300;BME280;39187;48.476;8.310;2023-11-19T03:35:25;91178.09;;;6.82;100.00
53300;BME280;39187;48.476;8.310;2023-11-19T03:37:50;91177.84;;;6.66;100.00
53300;BME280;39187;48.476;8.310;2023-11-19T03:40:17;91182.31;;;6.73;100.00
53300;BME280;39187;48.476;8.310;2023-11-19T03:42:44;91184.56;;;6.78;100.00
53300;BME280;39187;48.476;8.310;2023-11-19T03:45:10;91171.69;;;6.80;100.00
53300;BME280;39187;48.476;8.310;2023-11-19T03:47:36;91178.47;;;6.81;100.00
53300;BME280;39187;48.476;8.310;2023-11-19T03:50:02;91174.75;;;6.75;100.00
53300;BME280;39187;48.476;8.310;2023-11-19T03:52:29;91158.34;;;6.94;100.00
53300;BME280;39187;48.476;8.310;2023-11-19T03:54:55;91161.47;;;6.82;100.00
53300;BME280;39187;48.476;8.310;2023-11-19T03:57:22;91161.16;;;6.76;100.00
53300;BME280;39187;48.476;8.310;2023-11-19T03:59:47;91158.03;;;6.89;100.00
53300;BME280;39187;48.476;8.310;2023-11-19T04:02:13;91165.91;;;6.96;100.00
53300;BME280;39187;48.476;8.310;2023-11-19T04:04:39;91162.25;;;6.79;100.00
53300;BME280;39187;48.476;8.310;2023-11-19T04:07:05;91161.41;;;6.89;100.00
53300;BME280;39187;48.476;8.310;2023-11-19T04:09:31;91146.41;;;6.75;100.00
53300;BME280;39187;48.476;8.310;2023-11-19T04:12:00;91155.25;;;7.03;100.00
53300;BME280;39187;48.476;8.310;2023-11-19T04:14:26;91164.88;;;6.82;100.00
53300;BME280;39187;48.476;8.310;2023-11-19T04:16:52;91184.75;;;6.98;100.00
53300;BME280;39187;48.476;8.310;2023-11-19T04:19:19;91193.72;;;7.11;100.00
53300;BME280;39187;48.476;8.310;2023-11-19T04:21:44;91184.03;;;6.97;100.00
53300;BME280;39187;48.476;8.310;2023-11-19T04:24:10;91174.06;;;7.12;100.00
53300;BME280;39187;48.476;8.310;2023-11-19T04:26:44;91177.25;;;6.96;100.00
53300;BME280;39187;48.476;8.310;2023-11-19T04:29:14;91173.19;;;7.25;100.00
53300;BME280;39187;48.476;8.310;2023-11-19T04:31:43;91186.81;;;7.24;100.00
53300;BME280;39187;48.476;8.310;2023-11-19T04:34:10;91174.47;;;7.10;100.00
53300;BME280;39187;48.476;8.310;2023-11-19T04:36:36;91178.59;;;7.11;100.00
53300;BME280;39187;48.476;8.310;2023-11-19T04:39:03;91180.22;;;6.98;100.00
53300;BME280;39187;48.476;8.310;2023-11-19T04:41:49;91180.59;;;7.04;100.00
53300;BME280;39187;48.476;8.310;2023-11-19T04:44:16;91173.78;;;7.03;100.00
53300;BME280;39187;48.476;8.310;2023-11-19T04:46:42;91183.94;;;7.04;100.00
53300;BME280;39187;48.476;8.310;2023-11-19T04:49:11;91186.59;;;7.08;100.00
53300;BME280;39187;48.476;8.310;2023-11-19T04:51:44;91181.72;;;6.99;100.00
53300;BME280;39187;48.476;8.310;2023-11-19T04:54:12;91183.59;;;7.02;100.00
53300;BME280;39187;48.476;8.310;2023-11-19T04:56:38;91177.34;;;7.27;100.00
53300;BME280;39187;48.476;8.310;2023-11-19T04:59:04;91183.75;;;7.29;100.00
53300;BME280;39187;48.476;8.310;2023-11-19T05:01:34;91181.50;;;7.24;100.00
53300;BME280;39187;48.476;8.310;2023-11-19T05:04:00;91178.09;;;7.27;100.00
53300;BME280;39187;48.476;8.310;2023-11-19T05:06:30;91173.25;;;7.18;100.00
53300;BME280;39187;48.476;8.310;2023-11-19T05:08:59;91179.94;;;7.30;100.00
53300;BME280;39187;48.476;8.310;2023-11-19T05:11:35;91179.94;;;7.30;100.00
53300;BME280;39187;48.476;8.310;2023-11-19T05:14:02;91167.25;;;7.14;100.00
53300;BME280;39187;48.476;8.310;2023-11-19T05:16:29;91178.91;;;7.20;100.00
53300;BME280;39187;48.476;8.310;2023-11-19T05:18:55;91169.44;;;7.23;100.00
53300;BME280;39187;48.476;8.310;2023-11-19T05:21:20;91167.19;;;7.21;100.00
53300;BME280;39187;48.476;8.310;2023-11-19T05:23:46;91165.97;;;7.30;100.00
53300;BME280;39187;48.476;8.310;2023-11-19T05:26:22;91157.69;;;7.24;100.00
53300;BME280;39187;48.476;8.310;2023-11-19T05:28:48;91162.06;;;7.41;100.00
53300;BME280;39187;48.476;8.310;2023-11-19T05:31:15;91164.06;;;7.30;100.00
53300;BME280;39187;48.476;8.310;2023-11-19T05:33:41;91161.69;;;7.39;100.00
53300;BME280;39187;48.476;8.310;2023-11-19T05:36:06;91166.75;;;7.27;100.00
53300;BME280;39187;48.476;8.310;2023-11-19T05:38:34;91165.84;;;7.40;100.00
53300;BME280;39187;48.476;8.310;2023-11-19T05:41:00;91171.94;;;7.37;100.00
53300;BME280;39187;48.476;8.310;2023-11-19T05:43:25;91174.81;;;7.50;100.00
53300;BME280;39187;48.476;8.310;2023-11-19T05:45:51;91182.81;;;7.46;100.00
53300;BME280;39187;48.476;8.310;2023-11-19T05:48:16;91174.94;;;7.39;100.00
53300;BME280;39187;48.476;8.310;2023-11-19T05:50:42;91178.41;;;7.33;100.00
53300;BME280;39187;48.476;8.310;2023-11-19T05:53:07;91179.81;;;7.44;100.00
53300;BME280;39187;48.476;8.310;2023-11-19T05:55:36;91181.09;;;7.29;100.00
53300;BME280;39187;48.476;8.310;2023-11-19T05:58:10;91187.31;;;7.49;100.00
53300;BME280;39187;48.476;8.310;2023-11-19T06:00:38;91187.47;;;7.35;100.00
53300;BME280;39187;48.476;8.310;2023-11-19T06:03:04;91190.78;;;7.43;100.00
53300;BME280;39187;48.476;8.310;2023-11-19T06:05:30;91190.06;;;7.42;100.00
53300;BME280;39187;48.476;8.310;2023-11-19T06:07:55;91187.34;;;7.46;100.00
53300;BME280;39187;48.476;8.310;2023-11-19T06:10:23;91176.06;;;7.42;100.00
53300;BME280;39187;48.476;8.310;2023-11-19T06:12:54;91191.88;;;7.49;100.00
53300;BME280;39187;48.476;8.310;2023-11-19T06:15:22;91189.19;;;7.52;100.00
53300;BME280;39187;48.476;8.310;2023-11-19T06:17:48;91180.84;;;7.54;100.00
53300;BME280;39187;48.476;8.310;2023-11-19T06:20:13;91179.28;;;7.56;100.00
53300;BME280;39187;48.476;8.310;2023-11-19T06:22:40;91173.69;;;7.51;100.00
53300;BME280;39187;48.476;8.310;2023-11-19T06:25:08;91175.56;;;7.54;100.00
53300;BME280;39187;48.476;8.310;2023-11-19T06:27:33;91170.28;;;7.50;100.00
53300;BME280;39187;48.476;8.310;2023-11-19T06:30:00;91176.31;;;7.54;100.00
53300;BME280;39187;48.476;8.310;2023-11-19T06:32:25;91180.09;;;7.53;100.00
53300;BME280;39187;48.476;8.310;2023-11-19T06:34:51;91172.47;;;7.59;100.00
53300;BME280;39187;48.476;8.310;2023-11-19T06:37:17;91184.56;;;7.60;100.00
53300;BME280;39187;48.476;8.310;2023-11-19T06:39:42;91189.47;;;7.61;100.00
53300;BME280;39187;48.476;8.310;2023-11-19T06:42:08;91195.13;;;7.63;100.00
53300;BME280;39187;48.476;8.310;2023-11-19T06:44:33;91192.53;;;7.56;100.00
53300;BME280;39187;48.476;8.310;2023-11-19T06:46:59;91198.50;;;7.64;100.00
53300;BME280;39187;48.476;8.310;2023-11-19T06:49:25;91200.91;;;7.51;100.00
53300;BME280;39187;48.476;8.310;2023-11-19T06:51:51;91192.84;;;7.62;100.00
53300;BME280;39187;48.476;8.310;2023-11-19T06:54:16;91201.56;;;7.62;100.00
53300;BME280;39187;48.476;8.310;2023-11-19T06:56:42;91213.22;;;7.69;100.00
53300;BME280;39187;48.476;8.310;2023-11-19T06:59:08;91214.03;;;7.65;100.00
53300;BME280;39187;48.476;8.310;2023-11-19T07:01:35;91223.03;;;7.72;100.00
53300;BME280;39187;48.476;8.310;2023-11-19T07:04:01;91220.00;;;7.73;100.00
53300;BME280;39187;48.476;8.310;2023-11-19T07:06:33;91217.28;;;7.80;100.00
53300;BME280;39187;48.476;8.310;2023-11-19T07:08:59;91226.69;;;7.85;100.00
53300;BME280;39187;48.476;8.310;2023-11-19T07:11:37;91210.56;;;7.69;100.00
53300;BME280;39187;48.476;8.310;2023-11-19T07:14:04;91225.84;;;7.91;100.00
53300;BME280;39187;48.476;8.310;2023-11-19T07:16:30;91229.47;;;7.74;100.00
53300;BME280;39187;48.476;8.310;2023-11-19T07:18:56;91218.81;;;7.78;100.00
53300;BME280;39187;48.476;8.310;2023-11-19T07:21:21;91221.16;;;7.72;100.00
53300;BME280;39187;48.476;8.310;2023-11-19T07:23:47;91226.00;;;7.77;100.00
53300;BME280;39187;48.476;8.310;2023-11-19T07:26:13;91232.34;;;7.87;100.00
53300;BME280;39187;48.476;8.310;2023-11-19T07:28:38;91244.56;;;7.77;100.00
53300;BME280;39187;48.476;8.310;2023-11-19T07:31:05;91252.00;;;7.89;100.00
53300;BME280;39187;48.476;8.310;2023-11-19T07:33:33;91247.75;;;7.95;100.00
53300;BME280;39187;48.476;8.310;2023-11-19T07:35:59;91259.69;;;7.77;100.00
53300;BME280;39187;48.476;8.310;2023-11-19T07:38:24;91268.72;;;7.83;100.00
53300;BME280;39187;48.476;8.310;2023-11-19T07:40:50;91269.44;;;7.87;100.00
53300;BME280;39187;48.476;8.310;2023-11-19T07:43:15;91269.16;;;7.78;100.00
53300;BME280;39187;48.476;8.310;2023-11-19T07:45:41;91264.22;;;7.80;100.00
53300;BME280;39187;48.476;8.310;2023-11-19T07:48:09;91263.03;;;7.84;100.00
53300;BME280;39187;48.476;8.310;2023-11-19T07:50:35;91249.78;;;7.84;100.00
53300;BME280;39187;48.476;8.310;2023-11-19T07:53:01;91247.19;;;7.81;100.00
53300;BME280;39187;48.476;8.310;2023-11-19T07:55:27;91250.09;;;7.90;100.00
53300;BME280;39187;48.476;8.310;2023-11-19T07:57:52;91255.06;;;7.84;100.00
53300;BME280;39187;48.476;8.310;2023-11-19T08:00:18;91253.44;;;7.94;100.00
53300;BME280;39187;48.476;8.310;2023-11-19T08:02:45;91258.28;;;8.02;100.00
53300;BME280;39187;48.476;8.310;2023-11-19T08:05:10;91263.63;;;7.99;100.00
53300;BME280;39187;48.476;8.310;2023-11-19T08:07:37;91263.28;;;7.97;100.00
53300;BME280;39187;48.476;8.310;2023-11-19T08:10:02;91261.06;;;7.88;100.00
53300;BME280;39187;48.476;8.310;2023-11-19T08:12:30;91258.28;;;8.02;100.00
53300;BME280;39187;48.476;8.310;2023-11-19T08:14:56;91254.78;;;8.13;100.00
53300;BME280;39187;48.476;8.310;2023-11-19T08:17:24;91251.84;;;8.03;100.00
53300;BME280;39187;48.476;8.310;2023-11-19T08:19:51;91249.41;;;8.16;100.00
53300;BME280;39187;48.476;8.310;2023-11-19T08:22:16;91254.34;;;8.14;100.00
53300;BME280;39187;48.476;8.310;2023-11-19T08:24:42;91263.28;;;7.97;100.00
53300;BME280;39187;48.476;8.310;2023-11-19T08:27:08;91257.34;;;7.86;100.00
53300;BME280;39187;48.476;8.310;2023-11-19T08:29:34;91264.16;;;7.87;100.00
53300;BME280;39187;48.476;8.310;2023-11-19T08:32:02;91281.44;;;7.95;100.00
53300;BME280;39187;48.476;8.310;2023-11-19T08:34:29;91272.59;;;8.09;100.00
53300;BME280;39187;48.476;8.310;2023-11-19T08:36:55;91281.00;;;8.03;100.00
53300;BME280;39187;48.476;8.310;2023-11-19T08:39:21;91290.00;;;8.10;100.00
53300;BME280;39187;48.476;8.310;2023-11-19T08:41:47;91288.50;;;8.09;100.00
53300;BME280;39187;48.476;8.310;2023-11-19T08:44:13;91287.31;;;8.13;100.00
53300;BME280;39187;48.476;8.310;2023-11-19T08:46:46;91280.84;;;8.18;100.00
53300;BME280;39187;48.476;8.310;2023-11-19T08:49:12;91273.59;;;8.22;100.00
53300;BME280;39187;48.476;8.310;2023-11-19T08:51:37;91269.94;;;8.09;100.00
53300;BME280;39187;48.476;8.310;2023-11-19T08:54:03;91274.28;;;8.26;100.00
53300;BME280;39187;48.476;8.310;2023-11-19T08:56:29;91276.94;;;8.26;100.00
53300;BME280;39187;48.476;8.310;2023-11-19T08:58:58;91264.06;;;8.28;100.00
53300;BME280;39187;48.476;8.310;2023-11-19T09:01:23;91276.63;;;8.20;100.00
53300;BME280;39187;48.476;8.310;2023-11-19T09:03:50;91289.13;;;8.23;100.00
53300;BME280;39187;48.476;8.310;2023-11-19T09:06:15;91280.53;;;8.12;100.00
53300;BME280;39187;48.476;8.310;2023-11-19T09:08:44;91289.81;;;8.27;100.00
53300;BME280;39187;48.476;8.310;2023-11-19T09:11:10;91278.13;;;8.21;100.00
53300;BME280;39187;48.476;8.310;2023-11-19T09:13:36;91287.47;;;8.36;100.00
53300;BME280;39187;48.476;8.310;2023-11-19T09:16:01;91285.56;;;8.37;100.00
53300;BME280;39187;48.476;8.310;2023-11-19T09:18:30;91294.72;;;8.29;100.00
53300;BME280;39187;48.476;8.310;2023-11-19T09:20:57;91281.09;;;8.27;100.00
53300;BME280;39187;48.476;8.310;2023-11-19T09:23:23;91300.63;;;8.10;100.00
53300;BME280;39187;48.476;8.310;2023-11-19T09:25:50;91307.94;;;8.36;100.00
53300;BME280;39187;48.476;8.310;2023-11-19T09:28:16;91313.81;;;8.17;100.00
53300;BME280;39187;48.476;8.310;2023-11-19T09:30:42;91312.91;;;8.27;100.00
53300;BME280;39187;48.476;8.310;2023-11-19T09:33:07;91315.88;;;8.36;100.00
53300;BME280;39187;48.476;8.310;2023-11-19T09:35:33;91305.59;;;8.41;100.00
53300;BME280;39187;48.476;8.310;2023-11-19T09:37:58;91307.97;;;8.29;100.00
53300;BME280;39187;48.476;8.310;2023-11-19T09:40:24;91307.09;;;8.42;100.00
53300;BME280;39187;48.476;8.310;2023-11-19T09:42:51;91294.69;;;8.36;100.00
53300;BME280;39187;48.476;8.310;2023-11-19T09:45:17;91297.72;;;8.34;100.00
53300;BME280;39187;48.476;8.310;2023-11-19T09:47:46;91292.06;;;8.32;100.00
53300;BME280;39187;48.476;8.310;2023-11-19T09:50:21;91295.69;;;8.45;100.00
53300;BME280;39187;48.476;8.310;2023-11-19T09:52:47;91293.91;;;8.35;100.00
53300;BME280;39187;48.476;8.310;2023-11-19T09:55:13;91283.25;;;8.39;100.00
53300;BME280;39187;48.476;8.310;2023-11-19T09:57:40;91299.91;;;8.43;100.00
53300;BME280;39187;48.476;8.310;2023-11-19T10:00:07;91295.38;;;8.40;100.00
53300;BME280;39187;48.476;8.310;2023-11-19T10:02:34;91301.44;;;8.40;100.00
53300;BME280;39187;48.476;8.310;2023-11-19T10:05:07;91299.59;;;8.37;100.00
53300;BME280;39187;48.476;8.310;2023-11-19T10:07:33;91293.03;;;8.45;100.00
53300;BME280;39187;48.476;8.310;2023-11-19T10:10:00;91296.44;;;8.46;100.00
53300;BME280;39187;48.476;8.310;2023-11-19T10:12:27;91286.66;;;8.39;100.00
53300;BME280;39187;48.476;8.310;2023-11-19T10:14:56;91290.88;;;8.37;100.00
53300;BME280;39187;48.476;8.310;2023-11-19T10:17:36;91303.81;;;8.28;100.00
53300;BME280;39187;48.476;8.310;2023-11-19T10:20:01;91288.97;;;8.37;100.00
53300;BME280;39187;48.476;8.310;2023-11-19T10:22:28;91304.91;;;8.37;100.00
53300;BME280;39187;48.476;8.310;2023-11-19T10:24:54;91288.66;;;8.28;100.00
53300;BME280;39187;48.476;8.310;2023-11-19T10:27:20;91296.13;;;8.40;100.00
53300;BME280;39187;48.476;8.310;2023-11-19T10:29:48;91299.09;;;8.46;100.00
53300;BME280;39187;48.476;8.310;2023-11-19T10:32:14;91299.91;;;8.43;100.00
53300;BME280;39187;48.476;8.310;2023-11-19T10:34:42;91288.38;;;8.57;100.00
53300;BME280;39187;48.476;8.310;2023-11-19T10:37:09;91282.41;;;8.49;100.00
53300;BME280;39187;48.476;8.310;2023-11-19T10:39:54;91278.16;;;8.55;100.00
53300;BME280;39187;48.476;8.310;2023-11-19T10:42:20;91275.94;;;8.50;100.00
53300;BME280;39187;48.476;8.310;2023-11-19T10:44:46;91269.75;;;8.60;100.00
53300;BME280;39187;48.476;8.310;2023-11-19T10:47:13;91281.63;;;8.49;100.00
53300;BME280;39187;48.476;8.310;2023-11-19T10:49:39;91277.09;;;8.49;100.00
53300;BME280;39187;48.476;8.310;2023-11-19T10:52:08;91279.69;;;8.53;100.00
53300;BME280;39187;48.476;8.310;2023-11-19T10:54:34;91290.81;;;8.44;100.00
53300;BME280;39187;48.476;8.310;2023-11-19T10:57:01;91286.19;;;8.48;100.00
53300;BME280;39187;48.476;8.310;2023-11-19T10:59:30;91283.09;;;8.53;100.00
53300;BME280;39187;48.476;8.310;2023-11-19T11:01:56;91268.56;;;8.34;100.00
53300;BME280;39187;48.476;8.310;2023-11-19T11:04:23;91260.22;;;8.32;100.00
53300;BME280;39187;48.476;8.310;2023-11-19T11:06:51;91268.56;;;8.34;100.00
53300;BME280;39187;48.476;8.310;2023-11-19T11:09:17;91251.00;;;8.44;100.00
53300;BME280;39187;48.476;8.310;2023-11-19T11:11:47;91250.28;;;8.40;100.00
53300;BME280;39187;48.476;8.310;2023-11-19T11:14:13;91245.63;;;8.51;100.00
53300;BME280;39187;48.476;8.310;2023-11-19T11:16:43;91235.84;;;8.44;100.00
53300;BME280;39187;48.476;8.310;2023-11-19T11:19:10;91240.34;;;8.48;100.00
53300;BME280;39187;48.476;8.310;2023-11-19T11:21:38;91247.94;;;8.45;100.00
53300;BME280;39187;48.476;8.310;2023-11-19T11:24:46;91241.47;;;8.50;100.00
53300;BME280;39187;48.476;8.310;2023-11-19T11:32:51;91237.88;;;8.64;100.00
53300;BME280;39187;48.476;8.310;2023-11-19T11:35:43;91243.81;;;8.44;100.00
53300;BME280;39187;48.476;8.310;2023-11-19T11:38:14;91243.75;;;8.48;100.00
53300;BME280;39187;48.476;8.310;2023-11-19T11:40:40;91228.97;;;8.51;100.00
53300;BME280;39187;48.476;8.310;2023-11-19T11:43:45;91233.59;;;8.43;100.00
53300;BME280;39187;48.476;8.310;2023-11-19T11:49:01;91244.06;;;8.54;100.00
53300;BME280;39187;48.476;8.310;2023-11-19T11:54:25;91247.00;;;8.59;100.00
53300;BME280;39187;48.476;8.310;2023-11-19T12:02:04;91245.47;;;8.62;100.00
53300;BME280;39187;48.476;8.310;2023-11-19T12:04:30;91237.13;;;8.63;100.00
53300;BME280;39187;48.476;8.310;2023-11-19T12:07:06;91234.06;;;8.65;100.00
53300;BME280;39187;48.476;8.310;2023-11-19T12:09:32;91230.91;;;8.73;100.00
53300;BME280;39187;48.476;8.310;2023-11-19T12:12:27;91219.78;;;8.55;100.00
53300;BME280;39187;48.476;8.310;2023-11-19T12:20:04;91209.53;;;8.57;100.00
53300;BME280;39187;48.476;8.310;2023-11-19T12:22:41;91225.88;;;8.52;100.00
53300;BME280;39187;48.476;8.310;2023-11-19T12:25:08;91217.75;;;8.66;100.00
53300;BME280;39187;48.476;8.310;2023-11-19T12:27:44;91210.72;;;8.53;100.00
53300;BME280;39187;48.476;8.310;2023-11-19T12:30:10;91216.38;;;8.55;100.00
53300;BME280;39187;48.476;8.310;2023-11-19T12:32:41;91220.25;;;8.50;100.00
53300;BME280;39187;48.476;8.310;2023-11-19T12:35:07;91215.16;;;8.63;100.00
53300;BME280;39187;48.476;8.310;2023-11-19T12:37:47;91206.72;;;8.68;100.00
53300;BME280;39187;48.476;8.310;2023-11-19T12:40:15;91202.56;;;8.67;100.00
53300;BME280;39187;48.476;8.310;2023-11-19T12:42:41;91204.84;;;8.68;100.00
53300;BME280;39187;48.476;8.310;2023-11-19T12:45:07;91203.63;;;8.73;100.00
53300;BME280;39187;48.476;8.310;2023-11-19T12:47:40;91198.09;;;8.64;100.00
53300;BME280;39187;48.476;8.310;2023-11-19T12:50:06;91198.41;;;8.66;100.00
53300;BME280;39187;48.476;8.310;2023-11-19T12:52:34;91208.38;;;8.85;100.00
53300;BME280;39187;48.476;8.310;2023-11-19T12:54:59;91193.38;;;8.75;100.00
53300;BME280;39187;48.476;8.310;2023-11-19T12:57:41;91186.63;;;8.70;100.00
53300;BME280;39187;48.476;8.310;2023-11-19T13:00:18;91180.38;;;8.80;100.00
53300;BME280;39187;48.476;8.310;2023-11-19T13:05:32;91188.59;;;8.90;100.00
53300;BME280;39187;48.476;8.310;2023-11-19T13:08:05;91183.50;;;8.99;100.00
53300;BME280;39187;48.476;8.310;2023-11-19T13:10:54;91172.31;;;8.88;100.00
53300;BME280;39187;48.476;8.310;2023-11-19T13:13:20;91179.88;;;8.89;100.00
53300;BME280;39187;48.476;8.310;2023-11-19T13:15:46;91163.78;;;8.76;100.00
53300;BME280;39187;48.476;8.310;2023-11-19T13:18:12;91172.38;;;8.84;100.00
53300;BME280;39187;48.476;8.310;2023-11-19T13:20:39;91158.97;;;8.68;100.00
53300;BME280;39187;48.476;8.310;2023-11-19T13:23:06;91165.72;;;8.72;100.00
53300;BME280;39187;48.476;8.310;2023-11-19T13:25:35;91163.34;;;8.78;100.00
53300;BME280;39187;48.476;8.310;2023-11-19T13:28:01;91156.97;;;8.75;100.00